• pl
  • eng

Awiacja
NEWS
last updated: 12.09.2019 14:49<\/div>
Dear users,
We would like to inform you that from September 2nd a test form of the GAFOR forecast is available on our webpage. Please send your comments and suggestions to gafor@imgw.pl that will contribute to product development.
METAR messages from military airports. 07:01 22.01.2020

METAR EPCE 220630Z 28017G28KT 9999 OVC015 05/02
Q1020 RMK 045 085 8/8=

METAR EPDA 220630Z 28018G29KT 9999 SCT023 06/03
Q1023 RMK 057 083 4/4=

METAR EPDE 220630Z 25012KT 4000 BR BKN008 OVC012 00/M01 Q1022 RMK 002
093 8/5=

METAR EPIR 220630Z 26020G30KT 6000 -RA BKN008 OVC012 03/01 Q1023 RMK
030 088 8/6=

METAR EPKS 220630Z 27012KT 1800 DZ BR OVC003 02/02 Q1027 RMK 020 100
8/8=

METAR EPLK 220630Z 25014KT 2500 -FZDZ BR BKN004 OVC006 M00/M01 Q1026
RMK M005 097 8/5=

METAR EPLY 220630Z 26014KT 2000 DZ BR OVC006 01/01 Q1025 RMK 011 096
8/8=

METAR EPMB 220630Z 31014KT 9999 FEW030 SCT038 BKN120 06/01 Q1019 RMK
059 073 7/2=

METAR EPMI 220630Z 29016KT 7000 -DZ BKN009 OVC012 04/03 Q1024 RMK 044
093 8/5=

METAR EPMM 220630Z 27019KT 3000 -DZ BR OVC004 01/00 Q1020 RMK 010
094 8/8=
577
SAPL97 SOPR 220630 RRB

METAR EPNA 220630Z NIL=

METAR EPOK 220630Z 30023G34KT 9999 SCT018 BKN144 06/02
Q1019 RMK 057 078 6/4=

METAR EPPR 220630Z 28016KT 9999 BKN033 06/01 Q1020 RMK 060 070 7/7=

METAR EPPW 220630Z 27014KT 3000 -DZ BR OVC004 02/02 Q1025 RMK 017 100
8/8=

METAR EPRA 220630Z 28012KT 3000 -RA BR SCT008 OVC013 M00/M01 Q1024
RMK M004 095 8/4=

METAR EPSN 220630Z 30020G32KT 9999 BKN015 05/04 Q1024 RMK 050 090
7/7=

METAR EPTM 220630Z 24010KT 3500 -DZ BR OVC006 00/M01 Q1024 RMK 000
093 8/8=
Awiacja.imgw.pl jest pogodowym serwisem informacyjnym
Instytutu Meteorologii i Gospodarki Wodnej Państwowego Instytutu Badawczego.
Copyright IMGW PIB 2009-2019© Wszelkie prawa zastrzeżone.